Happy Valentine's Day! 

Flight Track Log - Related Links

Times and Time Zones

All times are in EDT time to prevent confusion due to time zone crossing. See the JBU917 flight status page for this flight to view local times or setup timezone preferences in your user account.


Time Position Orientation Groundspeed Altitude Reporting Facility
EDT Latitude Longitude Course Direction KTS MPH feet Rate Location/Type
Thu 04:33:45 PM 40.6667 -73.7333 306° West 159 183 1,500  Level New York TRACON
Thu 04:34:45 PM 40.6833 -73.6667 72° East 212 244 3,400 1,900 Climbing New York TRACON
Thu 04:35:45 PM 40.7167 -73.5833 62° Northeast 288 331 5,300 2,300 Climbing New York TRACON
Thu 04:36:00 PM 40.8360 -74.1551 304° West  Level FlightAware Approximate
Thu 04:36:45 PM 40.7667 -73.4833 57° Northeast 317 365 8,000  Level New York TRACON
Thu 04:37:00 PM 40.8880 -74.2556 306° West  Level FlightAware Approximate
Thu 04:37:45 PM 40.8333 -73.5000 349° North 302 348 10,700  Level New York TRACON
Thu 04:38:00 PM 40.9418 -74.3544 306° West  Level FlightAware Approximate
Thu 04:38:46 PM 40.9167 -73.5500 336° Northwest 318 366 12,300  Level New York TRACON
Thu 04:39:46 PM 40.9667 -73.6333 308° West 326 375 14,700 2,300 Climbing New York TRACON
Thu 04:40:46 PM 41.0333 -73.7333 311° West 337 388 16,900 878 Climbing New York TRACON
Thu 04:42:30 PM 41.0736 -73.9281 285° West 338 389 17,100 73 Climbing New York Center
Thu 04:43:30 PM 41.0831 -74.0358 277° West 315 362 17,100  Level New York Center
Thu 04:44:28 PM 41.0925 -74.1436 277° West 305 351 17,100 712 Level New York Center
Thu 04:45:28 PM 41.0997 -74.2569 275° West 300 345 18,500 1,450 Climbing New York Center
Thu 04:46:28 PM 41.1089 -74.3647 276° West 300 345 20,000 750 Climbing New York Center
Thu 04:47:28 PM 41.1197 -74.4864 277° West 318 366 20,000  Level New York Center
Thu 04:48:29 PM 41.1303 -74.6139 276° West 335 386 20,000 694 Level New York Center
Thu 04:49:29 PM 41.1553 -74.7392 285° West 345 397 21,400 1,488 Climbing New York Center
Thu 04:50:30 PM 41.2078 -74.8525 302° West 351 404 23,000 1,361 Climbing New York Center
Thu 04:51:28 PM 41.2558 -74.9686 299° West 378 435 24,100 1,169 Climbing New York Center
Thu 04:52:28 PM 41.3094 -75.0936 300° West 390 449 25,300 1,250 Climbing New York Center
Thu 04:53:28 PM 41.3728 -75.2414 300° West 407 468 26,600 1,190 Climbing New York Center
Thu 04:54:29 PM 41.4300 -75.3753 300° West 419 482 27,700 1,033 Climbing New York Center
Thu 04:55:30 PM 41.4831 -75.5117 297° West 419 482 28,700 908 Climbing New York Center
Thu 04:56:28 PM 41.5178 -75.6278 292° West 419 482 29,500 1,261 Climbing New York Center
Thu 04:57:29 PM 41.5669 -75.8006 291° West 414 476 31,200 1,574 Climbing New York Center
Thu 04:58:30 PM 41.6067 -75.9394 291° West 414 476 32,700 1,240 Climbing New York Center
Thu 04:59:30 PM 41.6442 -76.0811 290° West 409 471 33,700 1,250 Climbing New York Center
Thu 05:00:30 PM 41.6842 -76.2119 292° West 402 463 35,200 1,119 Climbing New York Center
Thu 05:01:28 PM 41.7197 -76.3428 290° West 390 449 35,900 407 Climbing New York Center
Thu 05:02:28 PM 41.7572 -76.4739 291° West 385 443 36,000 49 Climbing New York Center
Thu 05:03:30 PM 41.7892 -76.5906 290° West 375 432 36,000  Level New York Center
Thu 05:04:30 PM 41.8242 -76.7217 290° West 375 432 36,000  Level New York Center
Thu 05:05:28 PM 41.8594 -76.8503 290° West 375 432 36,000  Level New York Center
Thu 05:06:29 PM 41.8942 -76.9817 290° West 375 432 36,000  Level New York Center
Thu 05:06:57 PM 41.9164 -77.0586 291° West 377 434 36,000  Level Cleveland Center
Thu 05:07:57 PM 41.9517 -77.1878 290° West 377 434 36,000  Level Cleveland Center
Thu 05:08:57 PM 41.9886 -77.3200 291° West 377 434 36,000  Level Cleveland Center
Thu 05:09:57 PM 42.0217 -77.4497 289° West 377 434 36,000  Level Cleveland Center
Thu 05:10:57 PM 42.0564 -77.5794 290° West 377 434 36,000  Level Cleveland Center
Thu 05:11:57 PM 42.0908 -77.7094 290° West 377 434 36,000  Level Cleveland Center
Thu 05:12:57 PM 42.1275 -77.8394 291° West 377 434 36,000  Level Cleveland Center
Thu 05:13:57 PM 42.1617 -77.9725 289° West 377 434 36,000  Level Cleveland Center
Thu 05:14:57 PM 42.1961 -78.1083 289° West 377 434 36,000  Level Cleveland Center
Thu 05:15:57 PM 42.2300 -78.2361 290° West 377 434 36,000  Level Cleveland Center
Thu 05:16:57 PM 42.2639 -78.3694 289° West 377 434 36,000  Level Cleveland Center
Thu 05:17:57 PM 42.2978 -78.5031 289° West 377 434 36,000  Level Cleveland Center
Thu 05:18:57 PM 42.3311 -78.6339 289° West 377 434 36,000  Level Cleveland Center
Thu 05:19:57 PM 42.3603 -78.7511 289° West 377 434 36,000  Level Cleveland Center
Thu 05:20:57 PM 42.3956 -78.8878 289° West 372 428 36,000  Level Cleveland Center
Thu 05:21:57 PM 42.4267 -79.0219 287° West 377 434 36,000  Level Cleveland Center
Thu 05:22:57 PM 42.4619 -79.1564 290° West 377 434 36,000  Level Cleveland Center
Thu 05:23:57 PM 42.4925 -79.2936 287° West 377 434 36,000  Level Cleveland Center
Thu 05:24:57 PM 42.5003 -79.4314 274° West 377 434 36,000  Level Cleveland Center
Thu 05:25:57 PM 42.5058 -79.5692 273° West 366 421 36,000  Level Cleveland Center
Thu 05:26:57 PM 42.5131 -79.7044 274° West 366 421 36,000  Level Cleveland Center
Thu 05:27:57 PM 42.5203 -79.8450 274° West 366 421 36,000  Level Cleveland Center
Thu 05:28:57 PM 42.5256 -80.0000 273° West 366 421 36,000  Level Cleveland Center
Thu 05:29:57 PM 42.5303 -80.1381 273° West 366 421 36,000  Level Cleveland Center
Thu 05:30:57 PM 42.5389 -80.2761 275° West 366 421 36,000  Level Cleveland Center
Thu 05:31:57 PM 42.5414 -80.4142 271° West 366 421 36,000  Level Cleveland Center
Thu 05:32:57 PM 42.5478 -80.5550 274° West 366 421 36,000  Level Cleveland Center
Thu 05:33:57 PM 42.5539 -80.6931 273° West 365 420 36,000  Level Cleveland Center
Thu 05:34:57 PM 42.5578 -80.8311 272° West 365 420 36,000  Level Cleveland Center
Thu 05:35:57 PM 42.5639 -80.9581 274° West 377 434 36,000  Level Cleveland Center
Thu 05:36:57 PM 42.5694 -81.0992 273° West 382 440 36,000  Level Cleveland Center
Thu 05:37:57 PM 42.5731 -81.2400 272° West 382 440 36,000  Level Cleveland Center
Thu 05:38:57 PM 42.5783 -81.3811 273° West 377 434 36,000  Level Cleveland Center
Thu 05:39:57 PM 42.5961 -81.5194 280° West 377 434 36,000  Level Cleveland Center
Thu 05:40:57 PM 42.6197 -81.6581 283° West 383 441 36,000  Level Cleveland Center
Thu 05:41:57 PM 42.6456 -81.8053 283° West 376 433 36,000  Level Cleveland Center
Thu 05:42:57 PM 42.6689 -81.9386 283° West 382 440 36,000  Level Cleveland Center
Thu 05:43:57 PM 42.6922 -82.0747 283° West 382 440 36,000  Level Cleveland Center
Thu 05:44:57 PM 42.7175 -82.2167 284° West 382 440 36,000  Level Cleveland Center
Thu 05:45:57 PM 42.7403 -82.3586 282° West 382 440 36,000  Level Cleveland Center
Thu 05:46:57 PM 42.7631 -82.5006 282° West 382 440 36,000  Level Cleveland Center
Thu 05:47:57 PM 42.7878 -82.6428 283° West 387 445 36,000  Level Cleveland Center
Thu 05:48:57 PM 42.8103 -82.7822 282° West 387 445 36,000  Level Cleveland Center
Thu 05:49:57 PM 42.8344 -82.9303 283° West 393 452 36,000  Level Cleveland Center
Thu 05:50:57 PM 42.8583 -83.0728 283° West 393 452 36,000  Level Cleveland Center
Thu 05:51:57 PM 42.8803 -83.2156 282° West 393 452 36,000  Level Cleveland Center
Thu 05:52:57 PM 42.9039 -83.3611 283° West 393 452 36,000  Level Cleveland Center
Thu 05:53:57 PM 42.9275 -83.5039 283° West 393 452 36,000  Level Cleveland Center
Thu 05:54:57 PM 42.9489 -83.6467 282° West 388 447 36,000  Level Cleveland Center
Thu 05:55:57 PM 42.9617 -83.7892 277° West 388 447 36,000  Level Cleveland Center
Thu 05:56:57 PM 42.9472 -83.9303 262° West 382 440 36,000  Level Cleveland Center
Thu 05:57:57 PM 42.9328 -84.0658 262° West 377 434 36,000  Level Cleveland Center
Thu 05:58:57 PM 42.9225 -84.2011 264° West 372 428 36,000 -450 Level Cleveland Center
Thu 05:59:57 PM 42.9075 -84.3450 262° West 362 417 35,100 -1,462 Descending Cleveland Center
Thu 06:00:56 PM 42.8939 -84.4775 262° West 368 423 33,100 -1,537 Descending Chicago Center
Thu 06:01:58 PM 42.8806 -84.6194 263° West 379 436 32,000 -532 Descending Chicago Center
Thu 06:03:00 PM 42.8656 -84.7658 262° West 389 448 32,000  Level Chicago Center
Thu 06:04:02 PM 42.8503 -84.9100 262° West 386 444 32,000  Level Chicago Center
Thu 06:05:04 PM 42.8350 -85.0553 262° West 388 447 32,000  Level Chicago Center
Thu 06:06:06 PM 42.8158 -85.2292 262° West 388 447 32,000  Level Chicago Center
Thu 06:07:08 PM 42.8006 -85.3742 262° West 386 444 32,000 -528 Level Chicago Center
Thu 06:08:11 PM 42.7825 -85.5197 260° West 389 448 30,900 -1,536 Descending Chicago Center
Thu 06:09:13 PM 42.7558 -85.6656 256° West 394 453 28,800 -2,081 Descending Chicago Center
Thu 06:10:15 PM 42.7289 -85.8153 256° West 404 465 26,600 -2,081 Descending Chicago Center
Thu 06:11:17 PM 42.7031 -85.9611 256° West 397 457 24,500 -1,984 Descending Chicago Center
Thu 06:12:19 PM 42.6775 -86.1014 256° West 388 447 22,500 -2,081 Descending Chicago Center
Thu 06:13:21 PM 42.6489 -86.2561 256° West 360 414 20,200 -1,887 Descending Chicago Center
Thu 06:14:23 PM 42.6233 -86.3825 255° West 348 400 18,600 -1,597 Descending Chicago Center
Thu 06:15:25 PM 42.5997 -86.5169 257° West 363 418 16,900 -1,500 Descending Chicago Center
Thu 06:16:27 PM 42.5750 -86.6461 255° West 356 410 15,500 -1,355 Descending Chicago Center
Thu 06:17:29 PM 42.5500 -86.7711 255° West 347 399 14,100 -1,392 Descending Chicago Center
Thu 06:18:32 PM 42.5161 -86.8878 249° West 334 384 12,600 -1,536 Descending Chicago Center
Thu 06:19:34 PM 42.4786 -87.0281 250° West 333 383 10,900 -1,258 Descending Chicago Center
Thu 06:20:36 PM 42.4478 -87.1411 250° West 323 372 10,000 -726 Descending Chicago Center
Thu 06:21:38 PM 42.4211 -87.2350 249° West 274 315 9,400 -1,113 Descending Chicago Center
Thu 06:22:40 PM 42.3969 -87.3269 250° West 262 302 7,700 -1,597 Descending Chicago Center
Thu 06:23:42 PM 42.3708 -87.4186 249° West 257 296 6,100 -823 Descending Chicago Center
Thu 06:24:44 PM 42.3419 -87.5222 249° West 254 292 6,000 -48 Descending Chicago Center
Thu 06:25:46 PM 42.2883 -87.5431 196° South 246 283 6,000  Level Chicago Center
Thu 06:26:48 PM 42.2206 -87.5328 174° South 245 282 6,000  Level Chicago Center
Thu 06:27:50 PM 42.1394 -87.5194 173° South 246 283 6,000 -310 Level Chicago Center
Thu 06:28:44 PM 42.0833 -87.5000 166° South 203 234 5,400 -555 Descending Chicago TRACON
Thu 06:29:49 PM 42.0833 -87.4167 90° East 246 283 4,900 -706 Descending Chicago TRACON
Thu 06:30:43 PM 42.0667 -87.3500 109° East 234 269 4,000 -400 Descending Chicago TRACON
Thu 06:31:49 PM 42.0167 -87.3500 180° South 210 242 4,100  Climbing Chicago TRACON
Thu 06:32:43 PM 42.0000 -87.4167 251° West 210 242 4,000 -56 Descending Chicago TRACON
Thu 06:33:37 PM 42.0000 -87.4833 270° West 182 209 4,000  Level Chicago TRACON
Thu 06:34:37 PM 42.0000 -87.5500 270° West 173 199 4,000  Level Chicago TRACON
Thu 06:35:43 PM 42.0000 -87.6167 270° West 172 198 4,000  Level Chicago TRACON
Thu 06:36:37 PM 42.0000 -87.6833 270° West 173 199 4,000 -526 Level Chicago TRACON
Thu 06:37:37 PM 42.0000 -87.7333 270° West 173 199 3,000 -950 Descending Chicago TRACON
Thu 06:38:37 PM 42.0000 -87.8000 270° West 173 199 2,100 -850 Descending Chicago TRACON
Thu 06:39:37 PM 42.0000 -87.8500 270° West 134 154 1,300 -800 Descending Chicago TRACON

Login

Don't have an account? Register now (free) for customized features, flight alerts, and more!